createdAt,value
2022-07-29T00:00:16.229Z,20.10
2022-07-29T00:02:43.079Z,19.90
2022-07-29T00:05:10.923Z,19.90
2022-07-29T00:07:37.755Z,19.90
2022-07-29T00:10:05.530Z,19.90
2022-07-29T00:12:34.283Z,20.00
2022-07-29T00:15:01.209Z,20.10
2022-07-29T00:17:27.994Z,20.30
2022-07-29T00:19:57.499Z,20.40
2022-07-29T00:22:24.427Z,20.50
2022-07-29T00:24:54.127Z,20.60
2022-07-29T00:27:20.947Z,20.70
2022-07-29T00:29:47.731Z,20.80
2022-07-29T00:32:14.657Z,20.80
2022-07-29T00:35:00.260Z,20.80
2022-07-29T00:37:27.061Z,20.80
2022-07-29T00:39:53.746Z,20.80
2022-07-29T00:42:20.920Z,20.70
2022-07-29T00:44:47.632Z,20.70
2022-07-29T00:47:14.821Z,20.70
2022-07-29T00:49:42.942Z,20.70
2022-07-29T00:52:11.571Z,20.70
2022-07-29T00:54:44.527Z,20.80
2022-07-29T00:57:12.824Z,20.80
2022-07-29T00:59:42.855Z,20.90
2022-07-29T01:02:09.644Z,20.80
2022-07-29T01:04:36.403Z,20.80
2022-07-29T01:07:04.390Z,20.80
2022-07-29T01:09:42.870Z,20.70
2022-07-29T01:12:13.966Z,20.70
2022-07-29T01:14:41.687Z,20.70
2022-07-29T01:17:17.489Z,20.70
2022-07-29T01:20:11.056Z,20.70
2022-07-29T01:23:22.170Z,20.70
2022-07-29T01:26:09.263Z,20.60
2022-07-29T01:28:38.387Z,20.60
2022-07-29T01:31:08.569Z,20.60
2022-07-29T01:33:51.982Z,20.60
2022-07-29T01:36:26.496Z,20.60
2022-07-29T01:39:11.173Z,20.50
2022-07-29T01:41:42.313Z,20.50
2022-07-29T01:44:46.614Z,20.50
2022-07-29T01:47:21.597Z,20.40
2022-07-29T01:49:52.428Z,20.40
2022-07-29T01:52:33.364Z,20.30
2022-07-29T01:55:03.575Z,20.20
2022-07-29T01:57:34.793Z,20.20
2022-07-29T02:00:02.765Z,20.20
2022-07-29T02:02:31.290Z,20.10
2022-07-29T02:04:59.856Z,20.00
2022-07-29T02:07:30.308Z,20.10
2022-07-29T02:09:59.229Z,20.10
2022-07-29T02:12:27.154Z,20.10
2022-07-29T02:14:58.074Z,20.20
2022-07-29T02:17:35.866Z,20.20
2022-07-29T02:20:09.276Z,20.10
2022-07-29T02:22:38.650Z,20.10
2022-07-29T02:25:07.795Z,20.10
2022-07-29T02:27:43.494Z,20.00
2022-07-29T02:30:11.710Z,20.00
2022-07-29T02:32:40.628Z,20.00
2022-07-29T02:35:10.222Z,19.90
2022-07-29T02:37:38.439Z,19.90
2022-07-29T02:40:06.936Z,19.90
2022-07-29T02:42:36.955Z,19.80
2022-07-29T02:45:04.577Z,19.70
2022-07-29T02:47:48.564Z,19.70
2022-07-29T02:50:52.685Z,19.60
2022-07-29T02:53:23.796Z,19.60
2022-07-29T02:56:00.398Z,19.50
2022-07-29T02:58:31.709Z,19.50
2022-07-29T03:01:05.213Z,19.40
2022-07-29T03:03:37.410Z,19.30
2022-07-29T03:06:05.552Z,19.20
2022-07-29T03:08:33.553Z,19.20
2022-07-29T03:11:04.610Z,19.10
2022-07-29T03:13:31.946Z,19.00
2022-07-29T03:16:00.416Z,18.90
2022-07-29T03:18:28.043Z,18.80
2022-07-29T03:20:55.211Z,18.70
2022-07-29T03:23:24.796Z,18.60
2022-07-29T03:25:52.033Z,18.50
2022-07-29T03:28:19.190Z,18.40
2022-07-29T03:30:46.508Z,18.30
2022-07-29T03:33:13.881Z,18.30
2022-07-29T03:35:41.254Z,18.20
2022-07-29T03:38:08.162Z,18.20
2022-07-29T03:40:47.466Z,18.10
2022-07-29T03:43:18.507Z,18.20
2022-07-29T03:45:48.749Z,18.10
2022-07-29T03:48:18.605Z,18.10
2022-07-29T03:50:46.042Z,18.00
2022-07-29T03:53:13.612Z,17.90
2022-07-29T03:55:47.130Z,17.80
2022-07-29T03:58:14.931Z,17.70
2022-07-29T04:00:43.014Z,17.70
2022-07-29T04:03:11.783Z,17.70
2022-07-29T04:05:38.931Z,17.60
2022-07-29T04:08:06.087Z,17.60
2022-07-29T04:10:34.035Z,17.60
2022-07-29T04:13:02.688Z,17.60
2022-07-29T04:15:31.088Z,17.60
2022-07-29T04:17:58.892Z,17.60
2022-07-29T04:20:26.712Z,17.50
2022-07-29T04:22:53.417Z,17.50
2022-07-29T04:25:20.244Z,17.50
2022-07-29T04:28:01.858Z,17.40
2022-07-29T04:30:29.534Z,17.50
2022-07-29T04:32:56.440Z,17.40
2022-07-29T04:35:23.511Z,17.40
2022-07-29T04:37:50.237Z,17.50
2022-07-29T04:40:17.026Z,17.50
2022-07-29T04:42:46.818Z,17.60
2022-07-29T04:45:16.322Z,17.60
2022-07-29T04:47:43.224Z,17.70
2022-07-29T04:50:10.851Z,17.90
2022-07-29T04:52:37.951Z,18.30
2022-07-29T04:55:06.148Z,18.70
2022-07-29T04:57:33.453Z,19.20
2022-07-29T05:00:00.246Z,19.70
2022-07-29T05:02:27.119Z,20.00
2022-07-29T05:04:53.981Z,20.40
2022-07-29T05:07:20.761Z,20.70
2022-07-29T05:09:48.450Z,21.10
2022-07-29T05:12:15.263Z,21.40
2022-07-29T05:14:42.013Z,21.50
2022-07-29T05:17:09.830Z,21.60
2022-07-29T05:19:39.590Z,21.60
2022-07-29T05:22:06.871Z,21.80
2022-07-29T05:24:33.785Z,22.10
2022-07-29T05:27:00.580Z,22.10
2022-07-29T05:29:44.993Z,22.30
2022-07-29T05:32:13.801Z,22.50
2022-07-29T05:34:50.783Z,22.90
2022-07-29T05:37:22.015Z,23.10
2022-07-29T05:39:56.149Z,23.40
2022-07-29T05:42:24.325Z,23.50
2022-07-29T05:44:51.055Z,23.80
2022-07-29T05:47:17.966Z,23.90
2022-07-29T05:49:45.157Z,24.10
2022-07-29T05:52:11.972Z,24.30
2022-07-29T05:54:46.049Z,24.40
2022-07-29T05:57:22.824Z,24.40
2022-07-29T05:59:50.877Z,24.50
2022-07-29T06:02:18.405Z,24.90
2022-07-29T06:04:45.567Z,25.20
2022-07-29T06:07:12.584Z,25.30
2022-07-29T06:09:42.597Z,25.70
2022-07-29T06:12:12.339Z,25.50
2022-07-29T06:14:40.157Z,25.50
2022-07-29T06:17:10.065Z,25.30
2022-07-29T06:19:37.308Z,25.40
2022-07-29T06:22:04.694Z,25.40
2022-07-29T06:24:32.089Z,25.50
2022-07-29T06:26:58.768Z,25.50
2022-07-29T06:29:27.769Z,25.80
2022-07-29T06:31:54.523Z,25.70
2022-07-29T06:34:21.231Z,25.80
2022-07-29T06:36:48.138Z,26.10
2022-07-29T06:39:15.967Z,26.20
2022-07-29T06:41:42.858Z,26.40
2022-07-29T06:44:12.388Z,26.50
2022-07-29T06:46:39.178Z,26.80
2022-07-29T06:49:06.065Z,27.20
2022-07-29T06:51:33.301Z,27.70
2022-07-29T06:54:02.684Z,27.80
2022-07-29T06:56:39.337Z,27.40
2022-07-29T06:59:11.127Z,27.50
2022-07-29T07:01:39.107Z,27.10
2022-07-29T07:04:06.488Z,27.50
2022-07-29T07:06:33.449Z,27.70
2022-07-29T07:09:00.164Z,28.20
2022-07-29T07:11:26.881Z,28.70
2022-07-29T07:13:53.806Z,28.60
2022-07-29T07:16:20.647Z,28.90
2022-07-29T07:18:47.629Z,29.40
2022-07-29T07:21:19.189Z,29.70
2022-07-29T07:23:46.720Z,29.90
2022-07-29T07:26:14.620Z,29.90
2022-07-29T07:28:41.817Z,30.20
2022-07-29T07:31:08.557Z,30.20
2022-07-29T07:33:37.662Z,30.00
2022-07-29T07:36:04.674Z,30.20
2022-07-29T07:38:31.494Z,30.00
2022-07-29T07:40:58.237Z,29.10
2022-07-29T07:43:24.962Z,29.50
2022-07-29T07:45:51.759Z,29.90
2022-07-29T07:48:21.410Z,30.30
2022-07-29T07:50:50.225Z,30.60
2022-07-29T07:53:17.243Z,30.70
2022-07-29T07:56:09.327Z,31.30
2022-07-29T07:58:31.707Z,31.20
2022-07-29T08:00:58.635Z,31.40
2022-07-29T08:03:25.481Z,31.30
2022-07-29T08:05:52.867Z,31.20
2022-07-29T08:08:19.721Z,31.50
2022-07-29T08:11:00.559Z,31.30
2022-07-29T08:13:29.812Z,31.60
2022-07-29T08:16:01.641Z,31.30
2022-07-29T08:18:34.217Z,31.40
2022-07-29T08:21:01.024Z,31.70
2022-07-29T08:23:45.443Z,32.00
2022-07-29T08:26:16.307Z,32.50
2022-07-29T08:28:46.667Z,31.90
2022-07-29T08:31:14.662Z,31.20
2022-07-29T08:33:41.973Z,31.60
2022-07-29T08:36:09.190Z,31.80
2022-07-29T08:38:36.175Z,32.10
2022-07-29T08:41:03.122Z,32.20
2022-07-29T08:43:30.182Z,32.20
2022-07-29T08:45:57.062Z,32.30
2022-07-29T08:48:25.634Z,32.20
2022-07-29T08:50:56.881Z,31.40
2022-07-29T08:53:27.658Z,29.30
2022-07-29T08:55:55.560Z,29.70
2022-07-29T08:58:24.624Z,30.30
2022-07-29T09:00:55.585Z,30.10
2022-07-29T09:03:25.432Z,30.20
2022-07-29T09:05:53.018Z,30.10
2022-07-29T09:08:20.949Z,30.40
2022-07-29T09:10:51.928Z,30.60
2022-07-29T09:13:18.933Z,30.40
2022-07-29T09:18:46.865Z,30.70
2022-07-29T09:21:35.302Z,30.50
2022-07-29T09:24:13.202Z,30.50
2022-07-29T09:26:45.286Z,30.90
2022-07-29T09:29:23.699Z,31.50
2022-07-29T09:31:52.688Z,32.20
2022-07-29T09:34:32.315Z,32.30
2022-07-29T09:36:59.197Z,32.70
2022-07-29T09:39:33.781Z,33.00
2022-07-29T09:42:06.644Z,33.40
2022-07-29T09:44:50.908Z,33.00
2022-07-29T09:47:19.686Z,32.90
2022-07-29T09:49:59.162Z,33.30
2022-07-29T09:52:30.203Z,33.20
2022-07-29T09:55:08.205Z,33.60
2022-07-29T09:57:35.095Z,33.40
2022-07-29T10:00:22.727Z,32.90
2022-07-29T10:02:49.936Z,31.10
2022-07-29T10:05:21.947Z,30.40
2022-07-29T10:08:01.147Z,31.00
2022-07-29T10:10:40.382Z,31.60
2022-07-29T10:13:15.659Z,31.80
2022-07-29T10:15:46.097Z,32.40
2022-07-29T10:18:15.468Z,33.40
2022-07-29T10:20:42.530Z,33.60
2022-07-29T10:23:10.251Z,33.70
2022-07-29T10:25:37.401Z,33.20
2022-07-29T10:28:06.428Z,32.50
2022-07-29T10:30:39.725Z,31.70
2022-07-29T10:33:46.466Z,31.50
2022-07-29T10:36:39.954Z,31.80
2022-07-29T10:39:49.787Z,31.30
2022-07-29T10:42:33.972Z,31.20
2022-07-29T10:45:02.585Z,31.50
2022-07-29T10:47:31.809Z,31.20
2022-07-29T10:50:04.611Z,31.10
2022-07-29T10:52:57.913Z,31.20
2022-07-29T10:55:43.884Z,32.00
2022-07-29T10:58:25.059Z,32.60
2022-07-29T11:00:55.167Z,32.70
2022-07-29T11:03:49.497Z,32.60
2022-07-29T11:06:18.177Z,33.20
2022-07-29T11:09:25.926Z,33.10
2022-07-29T11:12:05.076Z,33.20
2022-07-29T11:14:59.853Z,32.70
2022-07-29T11:17:27.106Z,32.50
2022-07-29T11:20:43.584Z,32.30
2022-07-29T11:23:39.646Z,32.40
2022-07-29T11:26:23.166Z,32.40
2022-07-29T11:29:01.854Z,32.60
2022-07-29T11:31:47.217Z,33.10
2022-07-29T11:34:36.584Z,33.60
2022-07-29T11:37:13.497Z,34.00
2022-07-29T11:39:42.995Z,34.20
2022-07-29T11:45:41.850Z,32.20
2022-07-29T11:48:28.499Z,32.30
2022-07-29T11:50:58.770Z,33.10
2022-07-29T11:53:29.002Z,33.70
2022-07-29T11:56:00.977Z,34.20
2022-07-29T11:58:30.144Z,34.80
2022-07-29T12:00:58.488Z,34.10
2022-07-29T12:03:34.838Z,34.00
2022-07-29T12:06:02.995Z,34.20
2022-07-29T12:08:31.165Z,34.20
2022-07-29T12:10:57.968Z,33.90
2022-07-29T12:13:37.477Z,34.00
2022-07-29T12:16:05.433Z,34.50
2022-07-29T12:18:32.670Z,34.80
2022-07-29T12:21:04.545Z,34.30
2022-07-29T12:23:35.522Z,34.70
2022-07-29T12:26:07.608Z,35.40
2022-07-29T12:28:40.592Z,35.90
2022-07-29T12:31:14.475Z,35.20
2022-07-29T12:33:41.529Z,34.90
2022-07-29T12:36:17.132Z,34.50
2022-07-29T12:38:44.483Z,34.70
2022-07-29T12:41:11.795Z,34.70
2022-07-29T12:43:38.480Z,34.90
2022-07-29T12:46:15.960Z,34.90
2022-07-29T12:48:44.754Z,34.90
2022-07-29T12:51:15.888Z,34.50
2022-07-29T12:53:42.763Z,33.80
2022-07-29T12:59:16.711Z,33.20
2022-07-29T13:01:49.007Z,33.60
2022-07-29T13:04:30.641Z,33.90
2022-07-29T13:07:12.754Z,32.90
2022-07-29T13:09:48.462Z,32.30
2022-07-29T13:12:18.220Z,32.60
2022-07-29T13:14:47.474Z,31.90
2022-07-29T13:17:28.614Z,32.40
2022-07-29T13:20:10.305Z,33.10
2022-07-29T13:22:37.091Z,34.20
2022-07-29T13:25:04.003Z,35.10
2022-07-29T13:27:33.205Z,35.50
2022-07-29T13:30:02.416Z,35.10
2022-07-29T13:32:31.141Z,34.60
2022-07-29T13:34:59.949Z,34.70
2022-07-29T13:37:30.639Z,34.70
2022-07-29T13:39:58.216Z,33.60
2022-07-29T13:42:26.189Z,33.50
2022-07-29T13:44:55.637Z,33.80
2022-07-29T13:47:23.108Z,33.70
2022-07-29T13:50:03.428Z,33.00
2022-07-29T13:52:32.945Z,33.10
2022-07-29T13:54:59.760Z,33.40
2022-07-29T13:57:26.621Z,33.60
2022-07-29T13:59:54.321Z,33.80
2022-07-29T14:02:25.317Z,34.00
2022-07-29T14:04:54.298Z,34.10
2022-07-29T14:07:21.173Z,33.80
2022-07-29T14:09:47.962Z,33.80
2022-07-29T14:12:14.766Z,33.60
2022-07-29T14:14:42.534Z,33.50
2022-07-29T14:17:10.342Z,33.30
2022-07-29T14:19:38.546Z,33.40
2022-07-29T14:22:07.269Z,33.30
2022-07-29T14:24:34.678Z,32.80
2022-07-29T14:27:05.295Z,32.40
2022-07-29T14:29:37.668Z,32.00
2022-07-29T14:32:07.319Z,31.40
2022-07-29T14:34:35.271Z,30.90
2022-07-29T14:37:04.627Z,30.20
2022-07-29T14:39:32.081Z,29.50
2022-07-29T14:41:59.447Z,29.00
2022-07-29T14:44:31.890Z,28.70
2022-07-29T14:47:19.080Z,28.70
2022-07-29T14:49:45.773Z,28.70
2022-07-29T14:52:12.778Z,28.80
2022-07-29T14:54:42.738Z,28.80
2022-07-29T14:57:09.672Z,28.90
2022-07-29T14:59:36.497Z,28.80
2022-07-29T15:02:03.698Z,28.90
2022-07-29T15:04:31.181Z,29.00
2022-07-29T15:06:58.773Z,29.20
2022-07-29T15:09:25.464Z,29.50
2022-07-29T15:11:52.248Z,29.60
2022-07-29T15:14:19.056Z,29.40
2022-07-29T15:16:47.033Z,29.40
2022-07-29T15:19:15.062Z,29.40
2022-07-29T15:21:48.636Z,29.50
2022-07-29T15:24:17.335Z,29.90
2022-07-29T15:26:44.595Z,30.00
2022-07-29T15:29:11.385Z,30.20
2022-07-29T15:31:38.310Z,30.80
2022-07-29T15:34:06.532Z,31.00
2022-07-29T15:39:21.195Z,30.60
2022-07-29T15:41:48.016Z,30.20
2022-07-29T15:44:14.820Z,30.00
2022-07-29T15:47:00.571Z,29.40
2022-07-29T15:49:47.583Z,28.80
2022-07-29T15:52:18.343Z,28.40
2022-07-29T15:54:46.093Z,27.80
2022-07-29T15:57:13.309Z,27.30
2022-07-29T15:59:40.027Z,26.80
2022-07-29T16:02:06.971Z,26.40
2022-07-29T16:04:33.747Z,26.30
2022-07-29T16:07:03.868Z,26.20
2022-07-29T16:09:30.809Z,26.00
2022-07-29T16:11:57.676Z,25.90
2022-07-29T16:14:24.446Z,25.70
2022-07-29T16:17:03.781Z,25.70
2022-07-29T16:19:34.051Z,25.80
2022-07-29T16:22:00.748Z,26.10
2022-07-29T16:24:29.753Z,26.10
2022-07-29T16:26:57.045Z,25.70
2022-07-29T16:29:24.199Z,24.40
2022-07-29T16:31:53.387Z,23.60
2022-07-29T16:34:20.188Z,23.50
2022-07-29T16:36:47.943Z,23.90
2022-07-29T16:39:14.880Z,24.30
2022-07-29T16:41:42.228Z,24.80
2022-07-29T16:44:08.949Z,25.20
2022-07-29T16:46:37.336Z,25.70
2022-07-29T16:49:06.591Z,25.90
2022-07-29T16:51:33.348Z,26.20
2022-07-29T16:54:00.308Z,26.30
2022-07-29T16:56:26.973Z,26.30
2022-07-29T16:58:53.717Z,26.20
2022-07-29T17:01:20.497Z,26.00
2022-07-29T17:04:07.956Z,25.80
2022-07-29T17:06:36.065Z,25.50
2022-07-29T17:09:05.038Z,25.30
2022-07-29T17:11:53.333Z,25.10
2022-07-29T17:14:30.892Z,24.90
2022-07-29T17:17:02.334Z,24.60
2022-07-29T17:19:35.797Z,24.30
2022-07-29T17:22:18.690Z,24.10
2022-07-29T17:24:46.799Z,23.70
2022-07-29T17:27:13.875Z,23.60
2022-07-29T17:29:41.417Z,23.50
2022-07-29T17:32:09.386Z,23.50
2022-07-29T17:34:42.274Z,23.60
2022-07-29T17:37:10.845Z,23.60
2022-07-29T17:39:43.384Z,23.60
2022-07-29T17:42:11.984Z,23.50
2022-07-29T17:44:41.985Z,22.40
2022-07-29T17:47:16.361Z,21.10
2022-07-29T17:49:44.310Z,20.10
2022-07-29T17:52:11.358Z,19.60
2022-07-29T17:54:37.985Z,19.20
2022-07-29T17:57:04.706Z,19.10
2022-07-29T17:59:31.480Z,19.20
2022-07-29T18:01:58.175Z,19.20
2022-07-29T18:04:25.340Z,19.30
2022-07-29T18:06:52.026Z,19.30
2022-07-29T18:09:18.730Z,19.30
2022-07-29T18:11:46.205Z,19.20
2022-07-29T18:14:13.487Z,19.20
2022-07-29T18:16:40.582Z,19.10
2022-07-29T18:19:10.416Z,19.00
2022-07-29T18:21:45.867Z,19.00
2022-07-29T18:24:19.064Z,18.90
2022-07-29T18:26:46.002Z,18.90
2022-07-29T18:29:12.727Z,18.80
2022-07-29T18:31:41.109Z,18.80
2022-07-29T18:34:10.264Z,18.70
2022-07-29T18:36:36.924Z,18.70
2022-07-29T18:39:03.877Z,18.60
2022-07-29T18:41:30.571Z,18.50
2022-07-29T18:43:57.299Z,18.40
2022-07-29T18:46:24.343Z,18.30
2022-07-29T18:48:52.294Z,18.30
2022-07-29T18:51:19.196Z,18.30
2022-07-29T18:53:45.918Z,18.20
2022-07-29T18:56:12.663Z,18.20
2022-07-29T18:58:40.058Z,18.20
2022-07-29T19:01:06.776Z,18.20
2022-07-29T19:03:33.871Z,18.20
2022-07-29T19:06:01.059Z,18.20
2022-07-29T19:08:30.427Z,18.10
2022-07-29T19:10:57.116Z,18.10
2022-07-29T19:13:23.835Z,18.00
2022-07-29T19:15:50.643Z,18.00
2022-07-29T19:18:17.410Z,17.90
2022-07-29T19:20:44.449Z,17.80
2022-07-29T19:23:11.555Z,17.80
2022-07-29T19:25:53.659Z,17.80
2022-07-29T19:28:21.468Z,17.70
2022-07-29T19:30:48.740Z,17.80
2022-07-29T19:33:17.569Z,17.80
2022-07-29T19:35:45.228Z,17.70
2022-07-29T19:38:12.624Z,17.80
2022-07-29T19:40:39.774Z,17.70
2022-07-29T19:43:51.591Z,17.80
2022-07-29T19:45:53.800Z,17.80
2022-07-29T19:48:20.533Z,17.80
2022-07-29T19:50:47.655Z,17.70
2022-07-29T19:53:14.455Z,17.70
2022-07-29T19:55:42.354Z,17.70
2022-07-29T19:58:09.167Z,17.70
2022-07-29T20:00:35.900Z,17.60
2022-07-29T20:03:05.666Z,17.70
2022-07-29T20:05:32.438Z,17.60
2022-07-29T20:07:59.281Z,17.60
2022-07-29T20:10:26.137Z,17.50
2022-07-29T20:12:53.917Z,17.50
2022-07-29T20:15:22.372Z,17.50
2022-07-29T20:17:51.867Z,17.60
2022-07-29T20:20:23.122Z,17.60
2022-07-29T20:22:49.849Z,17.60
2022-07-29T20:25:16.599Z,17.70
2022-07-29T20:27:43.333Z,17.80
2022-07-29T20:30:15.360Z,17.80
2022-07-29T20:32:44.822Z,17.80
2022-07-29T20:35:17.436Z,17.90
2022-07-29T20:37:52.533Z,17.90
2022-07-29T20:40:23.700Z,18.00
2022-07-29T20:42:51.005Z,18.10
2022-07-29T20:45:20.218Z,18.20
2022-07-29T20:47:47.019Z,18.20
2022-07-29T20:50:14.449Z,18.20
2022-07-29T20:52:43.251Z,18.10
2022-07-29T20:55:10.536Z,17.90
2022-07-29T20:57:38.519Z,17.70
2022-07-29T21:00:09.372Z,17.60
2022-07-29T21:02:36.612Z,17.50
2022-07-29T21:05:03.602Z,17.40
2022-07-29T21:07:30.401Z,17.40
2022-07-29T21:09:57.082Z,17.30
2022-07-29T21:12:23.977Z,17.30
2022-07-29T21:14:51.742Z,17.10
2022-07-29T21:17:21.217Z,17.10
2022-07-29T21:19:52.387Z,17.20
2022-07-29T21:22:21.606Z,17.30
2022-07-29T21:24:49.051Z,17.30
2022-07-29T21:27:34.598Z,17.40
2022-07-29T21:30:01.323Z,17.50
2022-07-29T21:32:30.362Z,17.50
2022-07-29T21:34:57.782Z,17.50
2022-07-29T21:37:24.572Z,17.50
2022-07-29T21:39:51.422Z,17.50
2022-07-29T21:42:18.365Z,17.50
2022-07-29T21:44:45.305Z,17.60
2022-07-29T21:47:12.099Z,17.60
2022-07-29T21:49:39.237Z,17.60
2022-07-29T21:52:08.058Z,17.60
2022-07-29T21:54:36.138Z,17.60
2022-07-29T21:57:03.533Z,17.50
2022-07-29T21:59:30.696Z,17.30
2022-07-29T22:02:00.803Z,17.20
2022-07-29T22:04:36.982Z,17.00
2022-07-29T22:07:04.029Z,16.90
2022-07-29T22:09:30.965Z,16.80
2022-07-29T22:11:57.678Z,16.70
2022-07-29T22:14:24.418Z,16.60
2022-07-29T22:16:52.623Z,16.60
2022-07-29T22:19:27.619Z,16.50
2022-07-29T22:21:56.534Z,16.50
2022-07-29T22:24:23.188Z,16.40
2022-07-29T22:26:50.065Z,16.40
2022-07-29T22:29:17.723Z,16.40
2022-07-29T22:31:44.895Z,16.40
2022-07-29T22:34:14.527Z,16.30
2022-07-29T22:36:41.335Z,16.30
2022-07-29T22:39:08.284Z,16.20
2022-07-29T22:41:35.429Z,16.20
2022-07-29T22:44:02.663Z,16.10
2022-07-29T22:46:29.480Z,16.10
2022-07-29T22:48:57.640Z,16.10
2022-07-29T22:51:24.493Z,16.10
2022-07-29T22:53:51.382Z,16.10
2022-07-29T22:56:21.453Z,16.20
2022-07-29T22:58:49.055Z,16.20
2022-07-29T23:01:17.024Z,16.20
2022-07-29T23:04:03.850Z,16.20
2022-07-29T23:06:30.703Z,16.20
2022-07-29T23:08:57.431Z,16.20
2022-07-29T23:11:26.935Z,16.20
2022-07-29T23:13:53.604Z,16.20
2022-07-29T23:16:26.683Z,16.20
2022-07-29T23:18:54.247Z,16.20
2022-07-29T23:21:21.043Z,16.20
2022-07-29T23:23:51.129Z,16.30
2022-07-29T23:26:20.193Z,16.30
2022-07-29T23:28:46.964Z,16.40
2022-07-29T23:31:13.810Z,16.40
2022-07-29T23:33:43.682Z,16.50
2022-07-29T23:36:10.443Z,16.60
2022-07-29T23:38:40.898Z,16.60
2022-07-29T23:41:09.699Z,16.60
2022-07-29T23:43:37.646Z,16.60
2022-07-29T23:46:05.068Z,16.50
2022-07-29T23:48:33.380Z,16.40
2022-07-29T23:51:01.115Z,16.30
2022-07-29T23:53:28.471Z,16.30
2022-07-29T23:55:55.910Z,16.20
2022-07-29T23:58:22.964Z,16.20
